BITF weather

CLOSED Tálknafjörður Airport
Tálknafjörður, Westfjords, Iceland

Public forecast

Using degrees Celsius for public forecast. Weather courtesy of forecast.io.

METAR (pilot weather report)

Report is more than 2 hours old.

Closest report is Bildudalur Airport, 11.6 nm (21.4 km) E. Retrieved 2019/04/23 13:00 UTC (3 hours ago):

BIBD 231300Z 04014KT 9999 FEW045 05/M01 Q0998

TAF (pilot weather forecast)

Closest forecast is Reykjavik Airport, 106.7 nm (197.6 km) SSE. Retrieved 2019/04/23 15:03 UTC (27 minutes ago):

TAF BIRK 231400Z 2315/2415 10020KT 9999 RA SCT018 BKN027 OVC038 TX09/2318Z TN04/2315Z BECMG 2318/2320 12026G40KT BECMG 2322/2401 17020G30KT SHRA FEW023 BKN032 BECMG 2407/2409 17012KT NSW BECMG 2412/2414 VRB02KT 5000 RADZ OVC010